Time;durP1;ratioP1;P1;durP2;ratioP2;P2;SDS_P1;SDS_P2;PMS_P1;PMS_P2;Temp;Humidity;BMP_temperature;BMP_pressure;BME280_temperature;BME280_humidity;BME280_pressure;Samples;Min_cycle;Max_cycle;Signal;HPM_P1;HPM_P2
2022/02/14 00:01:57;;;;;;;10.25;5.05;;;;;;;3.87;65.75;101033.78;5064715;28;20056;-76
2022/02/14 00:04:23;;;;;;;11.02;5.40;;;;;;;3.86;65.54;101034.78;5061288;28;20047;-77
2022/02/14 00:06:48;;;;;;;12.23;5.50;;;;;;;3.84;65.35;101032.34;5061049;28;20040;-76
2022/02/14 00:09:14;;;;;;;9.60;5.57;;;;;;;3.85;65.28;101022.56;5062155;28;20256;-76
2022/02/14 00:11:41;;;;;;;14.40;5.47;;;;;;;3.84;65.42;101021.75;5059196;28;20027;-76
2022/02/14 00:14:07;;;;;;;11.05;5.38;;;;;;;3.76;65.81;101013.94;5058026;28;20482;-76
2022/02/14 00:16:32;;;;;;;9.63;5.00;;;;;;;3.79;65.77;101020.69;5059032;28;20081;-76
2022/02/14 00:18:58;;;;;;;9.93;5.45;;;;;;;3.78;65.39;101021.72;5052528;28;20081;-76
2022/02/14 00:21:23;;;;;;;11.85;6.20;;;;;;;3.75;65.69;101019.44;5052908;28;20726;-76
2022/02/14 00:23:49;;;;;;;13.20;5.90;;;;;;;3.72;66.04;101009.22;5050644;28;20544;-76
2022/02/14 00:26:15;;;;;;;10.15;5.10;;;;;;;3.71;65.66;101011.06;5071228;28;20763;-76
2022/02/14 00:28:41;;;;;;;11.45;5.40;;;;;;;3.71;65.67;101004.94;5048411;28;20029;-76
2022/02/14 00:31:06;;;;;;;9.38;4.93;;;;;;;3.69;66.09;101007.81;5052629;28;20028;-76
2022/02/14 00:33:32;;;;;;;9.88;5.28;;;;;;;3.71;65.71;101005.75;5061577;28;20024;-76
2022/02/14 00:35:57;;;;;;;14.38;5.60;;;;;;;3.69;65.61;101007.81;5061016;28;20028;-76
2022/02/14 00:38:23;;;;;;;8.32;5.22;;;;;;;3.69;65.86;101006.97;5059726;28;20572;-77
2022/02/14 00:40:48;;;;;;;9.05;5.43;;;;;;;3.67;65.70;101007.19;5064353;28;20017;-76
2022/02/14 00:43:14;;;;;;;9.20;5.10;;;;;;;3.63;65.88;101013.91;5060683;28;20020;-76
2022/02/14 00:45:40;;;;;;;9.68;5.07;;;;;;;3.64;65.96;101011.03;5060729;28;20115;-76
2022/02/14 00:48:05;;;;;;;12.48;5.47;;;;;;;3.61;66.01;101011.44;5061783;28;20166;-76
2022/02/14 00:50:31;;;;;;;11.23;5.53;;;;;;;3.61;65.75;101013.28;5063368;28;20103;-76
2022/02/14 00:52:57;;;;;;;9.35;5.95;;;;;;;3.61;65.81;101013.28;5062948;28;20353;-76
2022/02/14 00:55:23;;;;;;;9.65;5.00;;;;;;;3.59;65.88;101009.97;5058510;28;20025;-76
2022/02/14 00:57:49;;;;;;;8.85;4.85;;;;;;;3.59;65.59;101002.88;5062221;28;20043;-76
2022/02/14 01:00:16;;;;;;;10.35;5.50;;;;;;;3.59;65.81;101000.22;5056845;28;20099;-76
2022/02/14 01:02:42;;;;;;;10.68;5.05;;;;;;;3.58;65.72;100992.44;5064806;28;20462;-76
2022/02/14 01:05:09;;;;;;;9.07;5.75;;;;;;;3.57;65.73;100988.97;5079957;28;20025;-77
2022/02/14 01:07:35;;;;;;;13.52;5.47;;;;;;;3.57;65.74;100977.56;5061709;28;20055;-76
2022/02/14 01:10:01;;;;;;;12.07;5.30;;;;;;;3.54;65.50;100989.38;5078027;28;20091;-76
2022/02/14 01:12:27;;;;;;;7.47;4.85;;;;;;;3.54;65.82;100985.91;5059735;28;20576;-76
2022/02/14 01:14:54;;;;;;;10.88;4.93;;;;;;;3.53;65.71;100982.44;5057551;28;20033;-76
2022/02/14 01:17:20;;;;;;;13.75;5.13;;;;;;;3.54;65.72;100978.78;5064999;28;20675;-76
2022/02/14 01:19:45;;;;;;;9.38;5.40;;;;;;;3.53;65.75;100976.31;5054756;28;20035;-77
2022/02/14 01:22:11;;;;;;;6.90;4.78;;;;;;;3.54;65.46;100977.97;5066119;28;20028;-78
2022/02/14 01:24:37;;;;;;;10.35;5.00;;;;;;;3.54;65.63;100970.00;5066932;28;20028;-77
2022/02/14 01:27:04;;;;;;;11.65;5.68;;;;;;;3.53;65.45;100961.25;5057953;28;20079;-77
2022/02/14 01:29:30;;;;;;;9.85;4.55;;;;;;;3.55;65.50;100955.75;5058613;28;20028;-77
2022/02/14 01:31:56;;;;;;;7.55;4.30;;;;;;;3.48;65.87;100958.38;5064588;28;20090;-78
2022/02/14 01:34:22;;;;;;;11.27;5.07;;;;;;;3.53;65.33;100945.34;5061741;28;20975;-77
2022/02/14 01:36:48;;;;;;;8.63;3.85;;;;;;;3.53;65.53;100955.13;5061371;28;20053;-77
2022/02/14 01:39:13;;;;;;;7.05;4.15;;;;;;;3.51;65.15;100946.56;5062955;28;20048;-77
2022/02/14 01:41:39;;;;;;;8.65;4.13;;;;;;;3.55;65.37;100943.31;5064746;28;20166;-77
2022/02/14 01:44:10;;;;;;;9.27;4.05;;;;;;;3.58;65.04;100942.09;5058484;28;20036;-77
2022/02/14 01:46:35;;;;;;;8.52;4.78;;;;;;;3.61;64.89;100949.69;5062933;28;20013;-77
2022/02/14 01:49:01;;;;;;;9.93;4.47;;;;;;;3.66;64.89;100943.78;5060825;28;20112;-77
2022/02/14 01:51:26;;;;;;;7.72;4.32;;;;;;;3.66;64.60;100944.59;5060654;28;20021;-77
2022/02/14 01:53:52;;;;;;;8.02;4.35;;;;;;;3.67;64.72;100929.53;5061840;28;20115;-77
2022/02/14 01:56:18;;;;;;;9.10;4.20;;;;;;;3.66;64.80;100936.66;5075867;28;20521;-78
2022/02/14 01:58:43;;;;;;;9.10;4.63;;;;;;;3.68;64.48;100933.81;5061936;28;20029;-77
2022/02/14 02:01:09;;;;;;;9.60;4.13;;;;;;;3.68;64.79;100926.66;5060332;28;20436;-77
2022/02/14 02:03:35;;;;;;;8.70;4.25;;;;;;;3.68;64.54;100915.25;5063711;28;20019;-77
2022/02/14 02:06:01;;;;;;;7.65;4.55;;;;;;;3.67;64.65;100922.38;5064452;28;20031;-77
2022/02/14 02:08:26;;;;;;;10.23;4.20;;;;;;;3.63;64.56;100910.56;5062308;28;20087;-77
2022/02/14 02:12:22;;;;;;;9.50;4.72;;;;;;;3.63;64.12;100911.38;5057872;28;20020;-77
2022/02/14 02:13:46;;;;;;;11.20;5.20;;;;;;;3.60;64.50;100903.00;5059690;28;20230;-77
2022/02/14 02:16:14;;;;;;;7.95;4.38;;;;;;;3.54;64.49;100896.66;5058136;28;20107;-77
2022/02/14 02:18:39;;;;;;;9.27;4.45;;;;;;;3.54;64.56;100901.94;5058288;28;20056;-77
2022/02/14 02:21:05;;;;;;;11.05;5.50;;;;;;;3.54;64.38;100896.66;5057533;28;20122;-77
2022/02/14 02:23:30;;;;;;;9.93;4.53;;;;;;;3.52;64.75;100895.22;5057845;28;20537;-77
2022/02/14 02:25:56;;;;;;;9.57;4.75;;;;;;;3.52;64.48;100885.44;5058114;28;20112;-77
2022/02/14 02:28:21;;;;;;;6.93;3.97;;;;;;;3.50;64.76;100891.94;5057602;28;20417;-77
2022/02/14 02:30:47;;;;;;;7.57;4.05;;;;;;;3.47;64.75;100887.06;5059934;28;20021;-77
2022/02/14 02:33:12;;;;;;;11.52;5.03;;;;;;;3.47;64.56;100887.06;5057123;28;20020;-77
2022/02/14 02:35:38;;;;;;;7.60;4.18;;;;;;;3.44;64.36;100879.50;5056180;28;20047;-77
2022/02/14 02:38:03;;;;;;;8.63;4.20;;;;;;;3.44;64.63;100876.88;5057498;28;20025;-77
2022/02/14 02:40:29;;;;;;;8.13;4.63;;;;;;;3.42;64.50;100881.53;5066257;28;20112;-77
2022/02/14 02:42:56;;;;;;;9.60;4.10;;;;;;;3.39;64.46;100869.47;5062306;28;20032;-77
2022/02/14 02:45:21;;;;;;;9.27;4.40;;;;;;;3.36;64.86;100864.59;5060275;28;20097;-77
2022/02/14 02:47:47;;;;;;;13.13;5.10;;;;;;;3.33;64.81;100865.00;5060088;28;20481;-78
2022/02/14 02:50:12;;;;;;;12.00;5.18;;;;;;;3.33;64.80;100860.50;5059877;28;20051;-77
2022/02/14 02:52:38;;;;;;;11.38;4.93;;;;;;;3.31;64.65;100865.19;5062984;28;20040;-77
2022/02/14 02:55:04;;;;;;;10.50;5.20;;;;;;;3.27;64.81;100861.31;5061285;28;20088;-77
2022/02/14 02:57:30;;;;;;;10.32;5.40;;;;;;;3.24;64.70;100861.72;5060631;28;20481;-77
2022/02/14 02:59:56;;;;;;;9.63;5.40;;;;;;;3.24;64.63;100850.31;5063994;28;20059;-77
2022/02/14 03:02:22;;;;;;;11.93;4.45;;;;;;;3.19;65.08;100853.50;5059990;28;20067;-77
2022/02/14 03:04:48;;;;;;;9.10;5.07;;;;;;;3.20;64.99;100852.50;5061652;28;20028;-77
2022/02/14 03:07:14;;;;;;;13.25;5.75;;;;;;;3.17;65.03;100850.25;5060978;28;20060;-77
2022/02/14 03:09:40;;;;;;;14.02;5.45;;;;;;;3.16;65.05;100838.03;5061290;28;20051;-77
2022/02/14 03:12:06;;;;;;;8.63;4.93;;;;;;;3.19;64.95;100839.47;5057507;28;20120;-77
2022/02/14 03:14:31;;;;;;;10.05;5.63;;;;;;;3.17;64.84;100838.84;5054404;28;20509;-77
2022/02/14 03:16:58;;;;;;;8.90;4.80;;;;;;;3.17;65.22;100831.72;5063665;28;20032;-77
2022/02/14 03:19:24;;;;;;;10.45;5.28;;;;;;;3.17;64.82;100818.47;5060640;28;20021;-77
2022/02/14 03:21:50;;;;;;;11.05;5.40;;;;;;;3.15;65.21;100825.81;5080840;28;20501;-77
2022/02/14 03:24:15;;;;;;;10.32;5.28;;;;;;;3.19;64.97;100827.03;5064485;28;20145;-77
2022/02/14 03:26:41;;;;;;;9.65;4.93;;;;;;;3.18;65.15;100822.75;5058154;28;20032;-77
2022/02/14 03:29:06;;;;;;;9.25;5.15;;;;;;;3.20;64.82;100818.09;5053208;28;20028;-77
2022/02/14 03:31:32;;;;;;;10.80;4.97;;;;;;;3.19;64.83;100813.81;5057397;28;20505;-77
2022/02/14 03:33:57;;;;;;;11.55;5.97;;;;;;;3.20;64.30;100811.97;5061772;28;20029;-77
2022/02/14 03:36:23;;;;;;;10.10;5.20;;;;;;;3.17;64.71;100807.88;5062263;28;20180;-77
2022/02/14 03:38:50;;;;;;;8.30;4.78;;;;;;;3.15;65.03;100794.03;5064833;28;20102;-77
2022/02/14 03:41:15;;;;;;;10.90;5.22;;;;;;;3.16;65.12;100789.56;5060670;28;20111;-77
2022/02/14 03:43:41;;;;;;;10.75;4.53;;;;;;;3.16;64.89;100789.56;5059930;28;20115;-77
2022/02/14 03:46:07;;;;;;;9.95;5.43;;;;;;;3.16;65.11;100781.63;5060420;28;20106;-77
2022/02/14 03:48:32;;;;;;;15.13;5.60;;;;;;;3.12;64.87;100783.84;5056652;28;20043;-77
2022/02/14 03:50:58;;;;;;;11.35;5.10;;;;;;;3.18;64.87;100788.34;5054332;28;20111;-77
2022/02/14 03:53:23;;;;;;;8.45;4.88;;;;;;;3.17;64.62;100785.91;5060362;28;20035;-77
2022/02/14 03:55:50;;;;;;;7.80;5.05;;;;;;;3.17;64.80;100776.13;5063085;28;20029;-77
2022/02/14 03:58:16;;;;;;;11.27;5.28;;;;;;;3.17;64.72;100776.13;5065799;28;20025;-77
2022/02/14 04:00:42;;;;;;;9.00;5.40;;;;;;;3.14;64.97;100781.81;5055875;28;20484;-77
2022/02/14 04:03:08;;;;;;;10.98;5.30;;;;;;;3.17;64.80;100784.06;5067881;28;20036;-77
2022/02/14 04:05:34;;;;;;;9.63;4.97;;;;;;;3.16;64.75;100765.72;5063680;28;20029;-77
2022/02/14 04:07:59;;;;;;;8.50;5.93;;;;;;;3.14;64.93;100767.75;5069630;28;20108;-77
2022/02/14 04:10:26;;;;;;;9.88;4.40;;;;;;;3.17;64.71;100768.19;5068833;28;20082;-78
2022/02/14 04:12:53;;;;;;;11.75;5.40;;;;;;;3.15;64.68;100762.25;5064051;28;20028;-77
2022/02/14 04:15:18;;;;;;;8.48;5.07;;;;;;;3.14;64.52;100760.63;5064491;28;20084;-77
2022/02/14 04:17:45;;;;;;;12.02;5.15;;;;;;;3.17;64.49;100760.22;5064060;28;20044;-77
2022/02/14 04:20:12;;;;;;;10.95;5.45;;;;;;;3.18;64.57;100756.56;5051695;28;20021;-78
2022/02/14 04:22:38;;;;;;;8.98;4.45;;;;;;;3.18;64.31;100761.06;5074332;28;20032;-77
2022/02/14 04:25:05;;;;;;;8.32;4.65;;;;;;;3.18;64.38;100761.06;5056095;28;20049;-77
2022/02/14 04:27:30;;;;;;;11.15;5.20;;;;;;;3.18;64.24;100753.09;5059498;28;20103;-77
2022/02/14 04:29:56;;;;;;;8.73;4.78;;;;;;;3.18;63.81;100745.16;5059852;28;20055;-77
2022/02/14 04:32:21;;;;;;;10.68;4.30;;;;;;;3.17;64.11;100741.69;5061828;28;20028;-77
2022/02/14 04:34:47;;;;;;;8.05;5.00;;;;;;;3.17;64.38;100741.69;5057431;28;20067;-77
2022/02/14 04:37:12;;;;;;;9.68;5.47;;;;;;;3.17;63.96;100731.13;5067823;28;20032;-77
2022/02/14 04:39:38;;;;;;;10.25;5.05;;;;;;;3.19;63.92;100736.19;5065117;28;20039;-77
2022/02/14 04:42:04;;;;;;;8.80;4.55;;;;;;;3.20;63.86;100736.00;5066915;28;20601;-77
2022/02/14 04:44:29;;;;;;;9.07;4.72;;;;;;;3.19;63.61;100734.38;5068179;28;20028;-77
2022/02/14 04:46:55;;;;;;;8.52;4.03;;;;;;;3.18;63.82;100735.38;5062530;28;20068;-77
2022/02/14 04:49:20;;;;;;;8.80;4.70;;;;;;;3.19;63.51;100731.72;5067062;28;20016;-77
2022/02/14 04:51:45;;;;;;;9.20;4.80;;;;;;;3.17;63.76;100725.00;5066161;28;20032;-77
2022/02/14 04:54:11;;;;;;;10.27;5.03;;;;;;;3.21;63.54;100726.22;5063883;28;20047;-77
2022/02/14 04:56:36;;;;;;;9.60;4.40;;;;;;;3.23;63.45;100730.34;5061819;28;20049;-77
2022/02/14 04:59:02;;;;;;;8.73;4.43;;;;;;;3.19;63.20;100731.72;5055337;28;20029;-77
2022/02/14 05:01:27;;;;;;;9.40;4.40;;;;;;;3.21;63.21;100724.41;5062958;28;20047;-76
2022/02/14 05:03:53;;;;;;;7.53;4.63;;;;;;;3.23;63.15;100727.69;5062328;28;20025;-76
2022/02/14 05:06:19;;;;;;;10.35;4.93;;;;;;;3.24;63.03;100734.59;5059293;28;20119;-77
2022/02/14 05:08:44;;;;;;;7.00;4.30;;;;;;;3.21;62.96;100740.28;5064657;28;20039;-77
2022/02/14 05:11:11;;;;;;;6.47;4.13;;;;;;;3.24;63.03;100729.31;5065200;28;20228;-77
2022/02/14 05:13:41;;;;;;;9.13;4.05;;;;;;;3.23;63.08;100724.19;5059274;28;20399;-78
2022/02/14 05:16:10;;;;;;;8.10;4.40;;;;;;;3.19;63.30;100723.78;5060691;28;20077;-77
2022/02/14 05:18:36;;;;;;;7.32;4.47;;;;;;;3.21;63.10;100713.00;5058588;28;20248;-77
2022/02/14 05:21:02;;;;;;;7.78;4.10;;;;;;;3.22;63.23;100718.09;5055279;28;20124;-77
2022/02/14 05:23:28;;;;;;;8.90;4.22;;;;;;;3.23;62.99;100710.94;5062125;28;20035;-77
2022/02/14 05:25:53;;;;;;;6.47;4.20;;;;;;;3.23;62.90;100719.75;5065643;28;20021;-77
2022/02/14 05:28:18;;;;;;;7.40;4.18;;;;;;;3.21;62.88;100718.28;5068001;28;20032;-77
2022/02/14 05:30:44;;;;;;;8.52;5.40;;;;;;;3.21;62.75;100718.28;5062442;28;20020;-77
2022/02/14 05:33:10;;;;;;;8.55;5.13;;;;;;;3.20;62.77;100717.47;5059251;28;20032;-77
2022/02/14 05:35:35;;;;;;;7.97;4.80;;;;;;;3.18;62.81;100730.09;5062153;28;20925;-77
2022/02/14 05:38:01;;;;;;;9.85;4.57;;;;;;;3.18;62.78;100724.78;5077387;28;20023;-77
2022/02/14 05:40:28;;;;;;;13.10;5.10;;;;;;;3.15;62.75;100727.84;5064867;28;20103;-76
2022/02/14 05:42:54;;;;;;;9.10;4.38;;;;;;;3.16;62.84;100721.53;5063378;28;20544;-75
2022/02/14 05:45:19;;;;;;;8.07;4.93;;;;;;;3.13;62.60;100721.13;5065171;28;20099;-76
2022/02/14 05:47:45;;;;;;;11.63;5.03;;;;;;;3.14;62.88;100720.13;5064161;28;20305;-76
2022/02/14 05:50:11;;;;;;;8.60;4.28;;;;;;;3.14;62.55;100717.47;5062678;28;20024;-76
2022/02/14 05:52:37;;;;;;;6.43;3.83;;;;;;;3.12;62.47;100722.16;5060226;28;20047;-76
2022/02/14 05:55:03;;;;;;;7.55;4.30;;;;;;;3.12;62.39;100715.03;5064824;28;20131;-77
2022/02/14 05:57:30;;;;;;;8.80;4.90;;;;;;;3.13;62.49;100715.84;5066435;28;20070;-76
2022/02/14 05:59:55;;;;;;;12.80;4.95;;;;;;;3.10;62.29;100714.41;5064852;28;20533;-77
2022/02/14 06:02:21;;;;;;;7.30;4.47;;;;;;;3.10;62.26;100710.94;5066277;28;20043;-77
2022/02/14 06:04:46;;;;;;;7.32;4.18;;;;;;;3.13;62.52;100711.34;5060193;28;20029;-78
2022/02/14 06:07:12;;;;;;;11.20;4.50;;;;;;;3.10;62.11;100717.06;5061703;28;20516;-76
2022/02/14 06:09:37;;;;;;;6.93;4.32;;;;;;;3.10;62.10;100717.06;5061411;28;20097;-76
2022/02/14 06:12:03;;;;;;;8.82;4.82;;;;;;;3.11;62.36;100716.03;5058706;28;20028;-77
2022/02/14 06:14:30;;;;;;;7.78;4.65;;;;;;;3.10;62.11;100716.25;5064369;28;20055;-77
2022/02/14 06:16:55;;;;;;;10.20;4.97;;;;;;;3.10;62.26;100710.94;5063720;28;20042;-77
2022/02/14 06:19:21;;;;;;;8.43;4.50;;;;;;;3.07;62.24;100717.47;5058734;28;20025;-77
2022/02/14 06:21:47;;;;;;;10.30;4.85;;;;;;;3.08;62.16;100724.38;5054773;28;20096;-77
2022/02/14 06:24:14;;;;;;;7.32;4.18;;;;;;;3.06;62.36;100721.13;5060931;28;20390;-77
2022/02/14 06:26:39;;;;;;;7.10;3.70;;;;;;;3.07;62.33;100722.75;5054299;28;20047;-77
2022/02/14 06:29:05;;;;;;;8.38;4.88;;;;;;;3.07;62.02;100712.16;5058524;28;20040;-77
2022/02/14 06:31:31;;;;;;;7.90;4.55;;;;;;;3.08;62.22;100721.72;5057949;28;20108;-78
2022/02/14 06:33:57;;;;;;;7.78;4.53;;;;;;;3.08;61.95;100719.09;5059352;28;20040;-78
2022/02/14 06:36:23;;;;;;;8.63;4.82;;;;;;;3.08;62.11;100721.72;5063625;28;20078;-77
2022/02/14 06:38:51;;;;;;;8.82;4.57;;;;;;;3.09;61.78;100718.06;5061150;28;20071;-77
2022/02/14 06:41:16;;;;;;;10.27;4.40;;;;;;;3.13;61.97;100718.47;5060071;28;20040;-77
2022/02/14 06:43:42;;;;;;;6.72;4.25;;;;;;;3.11;61.69;100715.22;5067787;28;20133;-77
2022/02/14 06:46:07;;;;;;;9.27;4.80;;;;;;;3.12;61.85;100714.19;5059373;28;20632;-77
2022/02/14 06:48:33;;;;;;;7.88;4.72;;;;;;;3.08;61.89;100711.16;5061730;28;20028;-77
2022/02/14 06:50:59;;;;;;;9.52;4.57;;;;;;;3.10;61.79;100711.75;5058581;28;20056;-77
2022/02/14 06:53:26;;;;;;;10.23;4.85;;;;;;;3.12;61.62;100709.72;5060563;28;20033;-78
2022/02/14 06:55:52;;;;;;;7.00;4.60;;;;;;;3.13;61.73;100714.00;5064315;28;20020;-78
2022/02/14 06:58:18;;;;;;;6.53;3.95;;;;;;;3.16;61.58;100716.25;5062417;28;20029;-77
2022/02/14 07:00:43;;;;;;;11.00;4.65;;;;;;;3.15;61.28;100717.25;5065235;28;20048;-77
2022/02/14 07:03:09;;;;;;;9.40;4.38;;;;;;;3.19;61.67;100707.06;5062376;28;20052;-77
2022/02/14 07:05:35;;;;;;;10.63;4.78;;;;;;;3.19;61.72;100707.91;5064712;28;20020;-77
2022/02/14 07:08:01;;;;;;;7.38;4.28;;;;;;;3.22;61.50;100702.19;5059102;28;20089;-77
2022/02/14 07:10:27;;;;;;;9.77;4.53;;;;;;;3.27;61.50;100698.97;5056366;28;20032;-77
2022/02/14 07:12:53;;;;;;;8.30;4.82;;;;;;;3.31;61.50;100700.19;5057887;28;20358;-77
2022/02/14 07:15:18;;;;;;;7.60;4.60;;;;;;;3.33;61.40;100691.03;5064669;28;20037;-77
2022/02/14 07:17:45;;;;;;;8.93;4.20;;;;;;;3.36;61.23;100692.44;5058724;28;20024;-77
2022/02/14 07:20:11;;;;;;;7.90;4.22;;;;;;;3.38;61.07;100684.28;5058826;28;20103;-77
2022/02/14 07:22:37;;;;;;;8.50;4.47;;;;;;;3.39;60.90;100691.22;5060322;28;20056;-77
2022/02/14 07:25:03;;;;;;;7.30;3.95;;;;;;;3.39;61.22;100688.56;5059983;28;20048;-77
2022/02/14 07:27:32;;;;;;;12.02;4.90;;;;;;;3.41;60.86;100697.13;5064562;28;20089;-77
2022/02/14 07:29:57;;;;;;;10.88;5.13;;;;;;;3.41;61.14;100690.03;5057898;28;20036;-77
2022/02/14 07:32:23;;;;;;;8.68;4.32;;;;;;;3.37;60.86;100691.44;5068902;28;20021;-77
2022/02/14 07:34:49;;;;;;;8.63;4.70;;;;;;;3.45;60.93;100683.31;5066707;28;20020;-77
2022/02/14 07:37:14;;;;;;;9.13;4.45;;;;;;;3.47;60.73;100691.84;5068355;28;20024;-77
2022/02/14 07:39:39;;;;;;;8.63;4.47;;;;;;;3.52;60.49;100683.28;5067220;28;20032;-77
2022/02/14 07:42:05;;;;;;;8.38;4.10;;;;;;;3.62;60.61;100681.06;5068235;28;20021;-78
2022/02/14 07:44:30;;;;;;;8.73;3.80;;;;;;;3.64;60.34;100689.63;5062391;28;20024;-77
2022/02/14 07:46:56;;;;;;;9.98;4.50;;;;;;;3.73;60.25;100683.09;5058712;28;20032;-77
2022/02/14 07:49:23;;;;;;;8.52;4.80;;;;;;;3.76;60.36;100687.97;5067169;28;20410;-77
2022/02/14 07:51:49;;;;;;;6.80;4.35;;;;;;;3.84;60.08;100681.66;5062728;28;20027;-77
2022/02/14 07:54:15;;;;;;;7.13;4.43;;;;;;;3.84;59.87;100682.47;5062568;28;20116;-77
2022/02/14 07:56:41;;;;;;;6.63;3.92;;;;;;;3.91;60.03;100677.97;5062113;28;20024;-77
2022/02/14 07:59:07;;;;;;;7.93;4.75;;;;;;;3.94;59.93;100669.59;5062557;28;20116;-77
2022/02/14 08:01:34;;;;;;;8.68;4.15;;;;;;;3.98;59.76;100674.53;5064798;28;20032;-77
2022/02/14 08:03:59;;;;;;;6.75;3.63;;;;;;;4.00;59.40;100681.25;5061990;28;20485;-78
2022/02/14 08:06:25;;;;;;;8.18;4.47;;;;;;;4.05;59.65;100675.31;5066169;28;20078;-78
2022/02/14 08:08:51;;;;;;;6.68;4.05;;;;;;;4.10;59.30;100683.44;5064513;28;20160;-77
2022/02/14 08:11:17;;;;;;;6.88;4.40;;;;;;;4.11;59.55;100682.44;5069166;28;20046;-78
2022/02/14 08:13:43;;;;;;;7.60;4.32;;;;;;;4.16;59.26;100683.47;5065572;28;20039;-77
2022/02/14 08:16:08;;;;;;;6.00;3.63;;;;;;;4.20;58.79;100684.66;5062157;28;20032;-77
2022/02/14 08:18:34;;;;;;;7.68;4.28;;;;;;;4.27;59.00;100681.16;5066812;28;20032;-77
2022/02/14 08:20:59;;;;;;;9.00;4.55;;;;;;;4.33;59.02;100678.53;5060190;28;20053;-74
2022/02/14 08:23:25;;;;;;;7.18;3.67;;;;;;;4.39;59.06;100680.31;5066556;28;20021;-87
2022/02/14 08:25:50;;;;;;;7.30;4.32;;;;;;;4.49;58.85;100666.63;5062277;28;20016;-86
2022/02/14 08:28:16;;;;;;;8.13;4.60;;;;;;;4.54;58.39;100672.94;5068424;28;20040;-86
2022/02/14 08:30:42;;;;;;;8.48;3.88;;;;;;;4.58;58.02;100665.34;5055129;28;20025;-87
2022/02/14 08:33:10;;;;;;;7.75;4.10;;;;;;;4.65;57.84;100662.66;5065244;28;20029;-86
2022/02/14 08:35:37;;;;;;;7.65;4.10;;;;;;;4.73;57.73;100659.78;5067273;28;20239;-87
2022/02/14 08:38:03;;;;;;;5.85;3.63;;;;;;;4.82;57.83;100661.16;5057084;28;20098;-86
2022/02/14 08:40:28;;;;;;;8.15;4.20;;;;;;;4.93;57.57;100665.81;5064898;28;20021;-87
2022/02/14 08:42:54;;;;;;;7.82;3.85;;;;;;;4.96;57.58;100668.03;5071777;28;20031;-87
2022/02/14 08:45:20;;;;;;;11.00;4.75;;;;;;;4.99;56.88;100672.91;5056906;28;20025;-87
2022/02/14 08:47:45;;;;;;;7.70;4.18;;;;;;;5.08;56.99;100670.84;5063453;28;20025;-87
2022/02/14 08:50:11;;;;;;;8.55;4.68;;;;;;;5.14;56.74;100668.13;5069912;28;20040;-87
2022/02/14 08:52:36;;;;;;;8.75;4.82;;;;;;;5.25;56.89;100663.16;5066359;28;20020;-86
2022/02/14 08:55:03;;;;;;;9.02;4.25;;;;;;;5.29;56.16;100664.34;5057117;28;20025;-87
2022/02/14 08:57:28;;;;;;;9.93;4.28;;;;;;;5.30;56.32;100660.66;5063598;28;20490;-88
2022/02/14 08:59:54;;;;;;;9.50;4.43;;;;;;;5.37;56.38;100669.41;5065613;28;20086;-86
2022/02/14 09:02:20;;;;;;;8.93;4.18;;;;;;;5.42;56.08;100670.41;5072313;28;20028;-87
2022/02/14 09:04:45;;;;;;;6.38;4.05;;;;;;;5.53;56.40;100649.44;5071796;28;20063;-87
2022/02/14 09:07:11;;;;;;;8.23;4.53;;;;;;;5.62;56.03;100656.94;5063280;28;20110;-87
2022/02/14 09:09:36;;;;;;;7.10;4.78;;;;;;;5.68;56.00;100653.41;5059676;28;20023;-86
2022/02/14 09:12:02;;;;;;;8.02;4.05;;;;;;;5.76;55.71;100647.84;5062299;28;20028;-87
2022/02/14 09:14:28;;;;;;;8.55;4.70;;;;;;;5.86;55.96;100654.47;5060223;28;20074;-87
2022/02/14 09:16:54;;;;;;;9.75;3.92;;;;;;;5.87;55.57;100637.50;5068631;28;20020;-87
2022/02/14 09:19:20;;;;;;;7.32;4.15;;;;;;;5.88;54.43;100641.78;5064750;28;20111;-87
2022/02/14 09:21:46;;;;;;;7.35;3.88;;;;;;;5.91;54.85;100641.38;5063418;28;20501;-87
2022/02/14 09:24:13;;;;;;;8.07;3.95;;;;;;;6.03;55.18;100629.78;5068847;28;20021;-87
2022/02/14 09:26:43;;;;;;;8.18;4.15;;;;;;;6.10;54.36;100631.56;5064068;28;20024;-84
2022/02/14 09:29:10;;;;;;;9.40;4.70;;;;;;;6.16;54.61;100628.03;5058289;28;20501;-85
2022/02/14 09:31:37;;;;;;;8.63;4.95;;;;;;;6.25;54.65;100627.50;5069216;28;20217;-84
2022/02/14 09:34:06;;;;;;;5.47;3.67;;;;;;;6.32;54.57;100630.09;5061354;28;20025;-84
2022/02/14 09:36:33;;;;;;;8.48;4.45;;;;;;;6.40;54.67;100626.31;5064811;28;20020;-84
2022/02/14 09:38:59;;;;;;;10.65;5.13;;;;;;;6.48;54.34;100628.69;5062048;28;20024;-84
2022/02/14 09:41:26;;;;;;;7.85;4.20;;;;;;;6.51;53.98;100623.72;5064764;28;20039;-84
2022/02/14 09:43:52;;;;;;;7.88;4.63;;;;;;;6.62;54.40;100620.28;5057123;28;20024;-84
2022/02/14 09:46:18;;;;;;;7.32;4.03;;;;;;;6.65;53.50;100616.38;5066483;28;20025;-84
2022/02/14 09:48:44;;;;;;;10.07;3.90;;;;;;;6.74;53.69;100614.19;5063624;28;20023;-84
2022/02/14 09:51:12;;;;;;;8.90;4.65;;;;;;;6.76;53.32;100617.44;5065912;28;20090;-84
2022/02/14 09:53:39;;;;;;;7.50;3.90;;;;;;;6.80;53.20;100614.09;5059141;28;20024;-83
2022/02/14 09:56:05;;;;;;;6.50;4.22;;;;;;;6.88;52.88;100624.44;5060248;28;20119;-84
2022/02/14 09:58:31;;;;;;;7.93;4.43;;;;;;;6.98;52.90;100618.56;5055368;28;20521;-84
2022/02/14 10:00:56;;;;;;;6.47;4.18;;;;;;;7.06;52.91;100618.25;5065102;28;20033;-84
2022/02/14 10:03:23;;;;;;;9.55;4.68;;;;;;;7.13;52.81;100612.81;5064870;28;20033;-84
2022/02/14 10:05:54;;;;;;;10.70;4.05;;;;;;;7.20;52.27;100614.34;5064729;28;20028;-83
2022/02/14 10:08:22;;;;;;;8.55;4.97;;;;;;;7.28;52.29;100621.19;5065598;28;20028;-83
2022/02/14 10:10:49;;;;;;;8.60;4.13;;;;;;;7.30;52.22;100620.94;5057188;28;20025;-84
2022/02/14 10:13:30;;;;;;;10.35;4.22;;;;;;;7.36;51.28;100631.53;5077523;28;20033;-84
2022/02/14 10:15:55;;;;;;;14.32;4.88;;;;;;;7.48;52.07;100613.69;5057037;28;20032;-84
2022/02/14 10:18:41;;;;;;;9.18;4.53;;;;;;;7.56;51.78;100621.34;5059620;28;20029;-83
2022/02/14 10:21:20;;;;;;;6.07;4.45;;;;;;;7.66;50.36;100618.09;5079289;28;20027;-84
2022/02/14 10:24:03;;;;;;;6.97;4.00;;;;;;;7.72;50.54;100621.69;5061947;28;20032;-83
2022/02/14 10:26:36;;;;;;;6.25;3.97;;;;;;;7.83;51.15;100618.19;5058664;28;20476;-84
2022/02/14 10:29:20;;;;;;;8.32;4.55;;;;;;;7.95;50.84;100610.19;5060274;28;20570;-83
2022/02/14 10:31:54;;;;;;;8.63;4.73;;;;;;;8.09;50.89;100606.25;5058010;28;20079;-84
2022/02/14 10:34:31;;;;;;;7.68;4.38;;;;;;;8.15;50.45;100614.13;5059382;28;20119;-83
2022/02/14 10:36:57;;;;;;;8.68;4.53;;;;;;;8.28;50.41;100617.56;5064496;28;20028;-85
2022/02/14 10:39:25;;;;;;;6.90;4.07;;;;;;;8.39;50.60;100625.56;5064169;28;20363;-86
2022/02/14 10:42:01;;;;;;;7.85;3.75;;;;;;;8.44;49.18;100624.88;5067472;28;20017;-87
2022/02/14 10:47:25;;;;;;;8.82;4.15;;;;;;;8.66;48.90;100609.81;5054710;28;20044;-86
2022/02/14 10:50:13;;;;;;;8.65;4.20;;;;;;;8.82;49.72;100610.91;5066880;28;20025;-86
2022/02/14 10:52:41;;;;;;;9.00;3.70;;;;;;;8.92;49.71;100603.06;5082915;28;20032;-87
2022/02/14 10:55:19;;;;;;;5.97;3.67;;;;;;;8.98;49.00;100598.63;5067477;28;20035;-86
2022/02/14 10:57:46;;;;;;;8.95;4.70;;;;;;;9.12;49.02;100605.28;5060186;28;20025;-86
2022/02/14 11:00:14;;;;;;;7.43;4.05;;;;;;;9.28;49.36;100598.31;5064222;28;20102;-81
2022/02/14 11:02:43;;;;;;;7.00;3.92;;;;;;;9.39;49.25;100606.28;5063765;28;20030;-82
2022/02/14 11:05:10;;;;;;;10.40;4.35;;;;;;;9.51;49.48;100608.84;5061860;28;20035;-82
2022/02/14 11:07:36;;;;;;;7.32;4.00;;;;;;;9.62;49.04;100593.78;5066075;28;20111;-82
2022/02/14 11:10:04;;;;;;;8.07;3.95;;;;;;;9.72;49.33;100593.94;5061896;28;20486;-83
2022/02/14 11:12:34;;;;;;;10.18;4.35;;;;;;;9.84;49.01;100586.59;5066287;28;20730;-83
2022/02/14 11:15:02;;;;;;;5.25;3.50;;;;;;;9.86;47.68;100583.66;5073040;28;20020;-82
2022/02/14 11:17:30;;;;;;;5.82;3.10;;;;;;;9.86;48.28;100584.47;5058998;28;20125;-82
2022/02/14 11:20:07;;;;;;;7.78;3.83;;;;;;;9.92;47.20;100580.81;5068019;28;20059;-82
2022/02/14 11:22:39;;;;;;;8.63;4.10;;;;;;;10.09;48.05;100588.81;5063466;28;20363;-82
2022/02/14 11:25:20;;;;;;;6.95;3.58;;;;;;;10.20;47.09;100574.47;5073416;28;20020;-82
2022/02/14 11:28:06;;;;;;;12.63;3.38;;;;;;;10.42;46.53;100571.84;5070844;28;20020;-82
2022/02/14 11:30:32;;;;;;;5.60;3.38;;;;;;;10.54;46.90;100566.31;5071455;28;20028;-83
2022/02/14 11:33:09;;;;;;;6.28;3.45;;;;;;;10.57;45.29;100569.28;5072957;28;20051;-82